YBBN/BNE METAR and TAF weather

Enter ICAO airport designator
Station Type Date Time Source
YBBN METAR 2022/11/30 09:30 UTC NOAA

YBBN 300930Z AUTO 18008KT 9999 -RA OVC120 17/15 Q1012 RERA


Station Type Date Time Source
YBBN Decoded METAR 2022/11/30 09:30 UTC NOAA

Brisbane Airport M. O, Australia (YBBN) 27-23S 153-06E 5M
Nov 30, 2022 - 04:30 AM EST / 2022.11.30 0930 UTC
Wind: from the S (180 degrees) at 9 MPH (8 KT):0
Visibility: greater than 7 mile(s):0
Sky conditions: overcast
Weather: light rain
Temperature: 62 F (17 C)
Dew Point: 59 F (15 C)
Relative Humidity: 88%
Pressure (altimeter): 29.88 in. Hg (1012 hPa)
ob: YBBN 300930Z AUTO 18008KT 9999 -RA OVC120 17/15 Q1012 RERA
cycle: 9

Station Type Date Time Source
YBBN TAF 2022/11/30 09:45 UTC NOAA

TAF YBBN 300806Z 3009/0112 16010KT 9999 -RA SCT025 BKN035
FM301200 17010KT 9999 -RA SCT015 BKN025
FM301800 16012KT 7000 -RA SCT010 BKN020
FM302200 16018G28KT 8000 -RA SCT010 BKN025
FM011100 17012KT 9999 -RA SCT008 BKN020
TEMPO 3012/0112 3000 RA BKN010

Example: see airport list